Time;durP1;ratioP1;P1;durP2;ratioP2;P2;SDS_P1;SDS_P2;PMS_P1;PMS_P2;Temp;Humidity;BMP_temperature;BMP_pressure;BME280_temperature;BME280_humidity;BME280_pressure;Samples;Min_cycle;Max_cycle;Signal;HPM_P1;HPM_P2
2022/09/04 00:01:57;;;;;;;3.08;0.45;;;;;;;18.51;79.07;100811.94;5026382;28;20037;-65
2022/09/04 00:04:51;;;;;;;4.20;0.43;;;;;;;18.41;79.00;100810.63;5027138;28;20033;-65
2022/09/04 00:07:43;;;;;;;1.35;0.40;;;;;;;18.44;78.69;100811.03;5004749;28;20053;-65
2022/09/04 00:10:11;;;;;;;1.25;0.40;;;;;;;18.48;78.51;100804.41;4949257;28;20078;-65
2022/09/04 00:12:49;;;;;;;1.13;0.30;;;;;;;18.52;79.13;100810.94;4965815;28;20050;-65
2022/09/04 00:15:33;;;;;;;0.52;0.25;;;;;;;18.48;79.74;100811.50;4966857;28;20134;-65
2022/09/04 00:18:07;;;;;;;0.68;0.30;;;;;;;18.41;80.51;100808.81;4935219;28;20134;-65
2022/09/04 00:20:50;;;;;;;2.20;0.40;;;;;;;18.29;82.24;100812.94;4964683;28;20046;-66
2022/09/04 00:23:24;;;;;;;4.35;0.40;;;;;;;18.26;82.16;100815.13;4966733;28;20609;-66
2022/09/04 00:26:15;;;;;;;1.75;0.43;;;;;;;18.22;82.06;100815.50;4966636;28;20186;-65
2022/09/04 00:28:45;;;;;;;3.88;0.43;;;;;;;18.16;82.20;100808.31;4975183;28;20525;-65
2022/09/04 00:31:24;;;;;;;0.88;0.40;;;;;;;18.12;82.81;100809.69;4964497;28;20066;-66
2022/09/04 00:34:06;;;;;;;2.17;0.50;;;;;;;18.03;82.90;100807.34;4950249;28;20043;-65
2022/09/04 00:36:35;;;;;;;1.15;0.50;;;;;;;18.08;82.33;100802.34;4943740;29;20063;-66
2022/09/04 00:39:09;;;;;;;2.47;0.57;;;;;;;18.11;81.95;100810.69;4947233;29;20050;-65
2022/09/04 00:42:01;;;;;;;5.78;1.08;;;;;;;18.14;82.59;100805.06;4961110;28;20050;-65
2022/09/04 00:45:03;;;;;;;1.45;0.40;;;;;;;17.99;82.97;100796.34;4965513;28;20053;-65
2022/09/04 00:48:00;;;;;;;5.38;0.50;;;;;;;17.95;83.02;100794.28;5006053;28;20044;-66
2022/09/04 00:50:36;;;;;;;2.20;0.40;;;;;;;17.92;82.79;100784.94;5025682;28;20611;-67
2022/09/04 00:53:29;;;;;;;2.17;0.30;;;;;;;17.88;83.49;100786.31;5023681;28;20037;-65
2022/09/04 00:55:57;;;;;;;3.13;0.30;;;;;;;17.85;83.14;100784.03;5027835;28;20542;-64
2022/09/04 00:58:47;;;;;;;2.85;0.40;;;;;;;17.84;84.16;100788.50;5026603;28;20473;-65
2022/09/04 01:01:21;;;;;;;1.70;0.40;;;;;;;17.89;83.42;100786.13;5026842;28;20029;-65
2022/09/04 01:04:30;;;;;;;1.88;0.30;;;;;;;17.93;84.23;100778.66;5025235;28;20053;-66
2022/09/04 01:07:08;;;;;;;1.40;0.40;;;;;;;17.89;83.28;100780.03;5025551;28;20122;-67
2022/09/04 01:10:18;;;;;;;4.47;0.40;;;;;;;17.80;84.59;100786.41;5028336;28;20069;-65
2022/09/04 01:13:01;;;;;;;6.00;0.40;;;;;;;17.73;84.63;100786.31;5024230;28;20030;-65
2022/09/04 01:15:36;;;;;;;1.95;0.30;;;;;;;17.70;84.78;100788.50;5027232;28;20049;-65
2022/09/04 01:18:16;;;;;;;3.35;0.30;;;;;;;17.64;85.50;100791.81;5030466;28;20042;-65
2022/09/04 01:21:09;;;;;;;0.88;0.35;;;;;;;17.67;84.95;100796.75;5027474;28;20052;-66
2022/09/04 01:23:49;;;;;;;2.45;0.40;;;;;;;17.67;85.22;100794.13;5028148;28;20087;-65
2022/09/04 01:26:45;;;;;;;0.98;0.40;;;;;;;17.62;85.73;100814.91;5031574;28;20041;-65
2022/09/04 01:29:41;;;;;;;3.08;0.40;;;;;;;17.56;85.98;100812.00;5031625;28;20389;-66
2022/09/04 01:32:30;;;;;;;2.35;0.30;;;;;;;17.51;86.15;100811.72;5029527;28;20042;-66
2022/09/04 01:35:14;;;;;;;3.65;0.65;;;;;;;17.54;86.64;100813.16;5016852;28;20041;-66
2022/09/04 01:38:15;;;;;;;1.40;0.40;;;;;;;17.55;86.80;100820.91;5030635;28;20053;-65
2022/09/04 01:40:43;;;;;;;4.70;0.50;;;;;;;17.55;86.03;100820.91;5029748;28;20065;-65
2022/09/04 01:43:12;;;;;;;1.15;0.40;;;;;;;17.42;87.25;100820.72;5030218;28;20048;-66
2022/09/04 01:46:15;;;;;;;4.18;0.65;;;;;;;17.34;88.71;100818.16;5029813;28;20033;-66
2022/09/04 01:48:48;;;;;;;1.75;0.63;;;;;;;17.31;88.70;100815.06;5027560;28;20356;-66
2022/09/04 01:51:39;;;;;;;2.15;0.60;;;;;;;17.29;88.97;100810.00;5028921;28;20055;-65
2022/09/04 01:54:13;;;;;;;1.65;0.57;;;;;;;17.23;88.79;100822.06;5028651;28;20489;-65
2022/09/04 01:56:51;;;;;;;1.27;0.60;;;;;;;17.20;89.16;100822.41;5030884;28;20037;-65
2022/09/04 01:59:36;;;;;;;2.42;0.70;;;;;;;17.21;89.27;100817.97;5029608;28;20079;-65
2022/09/04 02:02:18;;;;;;;2.30;0.82;;;;;;;17.22;89.32;100828.31;5029516;28;20033;-65
2022/09/04 02:05:12;;;;;;;1.98;0.60;;;;;;;17.27;88.33;100830.41;5028838;28;20623;-65
2022/09/04 02:07:52;;;;;;;3.28;0.60;;;;;;;17.31;88.07;100828.25;5029241;28;20045;-65
2022/09/04 02:10:43;;;;;;;2.53;0.50;;;;;;;17.35;88.46;100824.25;5029825;28;20033;-65
2022/09/04 02:13:21;;;;;;;1.77;0.68;;;;;;;17.34;88.34;100828.69;5028398;28;20428;-65
2022/09/04 02:16:08;;;;;;;3.63;0.43;;;;;;;17.32;88.51;100827.25;5025487;28;20087;-65
2022/09/04 02:18:42;;;;;;;3.08;0.40;;;;;;;17.29;88.63;100824.97;5030710;28;20040;-65
2022/09/04 02:21:13;;;;;;;4.00;0.68;;;;;;;17.25;89.26;100820.06;5028170;28;20033;-65
2022/09/04 02:23:38;;;;;;;0.95;0.73;;;;;;;17.21;89.40;100818.78;5029126;28;20355;-65
2022/09/04 02:26:19;;;;;;;2.45;0.50;;;;;;;17.19;89.80;100812.88;5029288;28;20091;-64
2022/09/04 02:29:11;;;;;;;3.85;0.60;;;;;;;17.21;89.46;100807.44;5030865;28;20033;-66
2022/09/04 02:32:10;;;;;;;2.47;0.50;;;;;;;17.20;90.00;100805.78;5030255;28;20033;-65
2022/09/04 02:34:57;;;;;;;1.90;0.40;;;;;;;17.13;90.46;100799.59;5027669;28;20057;-66
2022/09/04 02:37:36;;;;;;;2.92;0.52;;;;;;;17.11;90.00;100805.03;5030437;28;20037;-66
2022/09/04 02:42:50;;;;;;;2.90;0.52;;;;;;;17.07;89.99;100810.84;5131492;22;20431;-66
2022/09/04 02:45:43;;;;;;;1.27;0.65;;;;;;;17.10;90.75;100827.09;5048256;28;20025;-66
2022/09/04 02:48:28;;;;;;;2.35;0.50;;;;;;;17.15;90.73;100821.31;5049641;28;20399;-66
2022/09/04 02:51:25;;;;;;;1.85;0.45;;;;;;;17.15;90.80;100837.91;5049909;28;20362;-65
2022/09/04 02:53:50;;;;;;;0.70;0.30;;;;;;;17.10;90.14;100834.19;5049917;28;20040;-66
2022/09/04 02:57:01;;;;;;;1.40;0.50;;;;;;;16.99;91.63;100842.53;5049775;28;20024;-66
2022/09/04 02:59:29;;;;;;;3.28;0.60;;;;;;;16.95;90.89;100849.97;5050225;28;20079;-67
2022/09/04 03:02:16;;;;;;;2.28;0.30;;;;;;;16.94;91.41;100842.25;5046878;28;20495;-66
2022/09/04 03:04:53;;;;;;;2.65;0.50;;;;;;;16.97;90.87;100847.16;5049831;28;20033;-65
2022/09/04 03:07:33;;;;;;;0.65;0.40;;;;;;;16.94;91.92;100844.88;5049468;28;20040;-66
2022/09/04 03:10:16;;;;;;;1.48;0.35;;;;;;;16.98;91.12;100846.16;5049108;28;20086;-66
2022/09/04 03:12:53;;;;;;;1.33;0.40;;;;;;;17.02;90.77;100855.31;5049297;28;20117;-66
2022/09/04 03:15:26;;;;;;;0.75;0.40;;;;;;;16.98;91.09;100865.41;5049685;28;20041;-65
2022/09/04 03:18:09;;;;;;;0.75;0.40;;;;;;;16.91;91.59;100870.53;5047896;28;20110;-66
2022/09/04 03:21:10;;;;;;;0.85;0.50;;;;;;;16.87;92.43;100858.72;5046081;28;20540;-66
2022/09/04 03:23:54;;;;;;;1.98;0.55;;;;;;;16.87;92.67;100871.06;5043851;28;20049;-66
2022/09/04 03:26:30;;;;;;;5.07;0.47;;;;;;;16.87;92.24;100861.34;5049126;28;20124;-67
2022/09/04 03:29:20;;;;;;;;;;;;;;;16.81;93.48;100862.06;5048931;28;20035;-67
2022/09/04 03:32:06;;;;;;;3.72;0.73;;;;;;;16.90;91.60;100865.44;5044238;28;20345;-66
2022/09/04 03:34:37;;;;;;;1.70;0.40;;;;;;;16.95;91.15;100870.19;5028611;28;20121;-65
2022/09/04 03:37:20;;;;;;;4.15;1.05;;;;;;;16.99;91.62;100872.31;5028986;28;20432;-66
2022/09/04 03:39:54;;;;;;;0.50;0.30;;;;;;;17.02;91.58;100871.09;5037789;28;20037;-65
2022/09/04 03:42:59;;;;;;;0.88;0.32;;;;;;;17.05;91.68;100865.47;5048708;28;20056;-65
2022/09/04 03:45:28;;;;;;;5.10;0.50;;;;;;;17.12;90.86;100861.97;5048614;28;20044;-66
2022/09/04 03:48:06;;;;;;;1.13;0.40;;;;;;;17.14;91.03;100870.50;5048607;28;20483;-65
2022/09/04 03:50:44;;;;;;;1.00;0.70;;;;;;;17.19;91.05;100864.72;5046656;28;20430;-66
2022/09/04 03:53:19;;;;;;;2.38;0.63;;;;;;;17.21;90.76;100865.34;5048521;28;20117;-65
2022/09/04 03:56:22;;;;;;;1.65;0.40;;;;;;;17.19;91.00;100856.81;5047849;28;20545;-65
2022/09/04 03:59:01;;;;;;;1.92;0.43;;;;;;;17.17;90.64;100864.06;5048687;28;20147;-65
2022/09/04 04:01:49;;;;;;;4.15;0.43;;;;;;;17.16;90.89;100868.53;5044902;28;20037;-66
2022/09/04 04:04:17;;;;;;;3.50;0.40;;;;;;;17.15;90.51;100866.06;5045880;28;20464;-66
2022/09/04 04:07:12;;;;;;;0.70;0.40;;;;;;;17.10;91.03;100869.22;5048426;28;20098;-67
2022/09/04 04:09:41;;;;;;;1.83;0.40;;;;;;;17.08;90.76;100865.13;5047965;28;20041;-66
2022/09/04 04:12:15;;;;;;;0.98;0.40;;;;;;;17.07;90.75;100866.94;5048282;28;20411;-66
2022/09/04 04:14:53;;;;;;;1.10;0.30;;;;;;;17.07;91.04;100859.03;5046591;28;20089;-66
2022/09/04 04:17:54;;;;;;;2.38;0.52;;;;;;;17.10;90.70;100877.13;5047136;28;20195;-66
2022/09/04 04:20:26;;;;;;;2.20;0.57;;;;;;;17.15;90.46;100884.50;5025205;28;20049;-66
2022/09/04 04:23:14;;;;;;;0.80;0.40;;;;;;;17.13;90.29;100878.59;5025522;28;20029;-66
2022/09/04 04:25:59;;;;;;;1.00;0.60;;;;;;;17.06;91.25;100877.66;5006912;28;20428;-66
2022/09/04 04:28:55;;;;;;;2.53;0.50;;;;;;;17.02;91.26;100876.38;5008693;28;20044;-66
2022/09/04 04:31:45;;;;;;;1.63;0.50;;;;;;;16.96;91.58;100880.53;4994228;28;20412;-66
2022/09/04 04:34:20;;;;;;;1.88;0.45;;;;;;;16.97;91.68;100879.56;5025372;28;20272;-66
2022/09/04 04:37:17;;;;;;;1.13;0.50;;;;;;;16.91;91.59;100880.25;5023351;28;20496;-66
2022/09/04 04:39:54;;;;;;;1.15;0.40;;;;;;;16.85;91.96;100892.28;5023974;28;20048;-67
2022/09/04 04:43:09;;;;;;;1.75;0.93;;;;;;;16.85;92.97;100897.56;5024915;28;20156;-66
2022/09/04 04:45:50;;;;;;;0.60;0.30;;;;;;;16.82;92.66;100907.63;4999772;28;20091;-65
2022/09/04 04:48:30;;;;;;;1.55;0.60;;;;;;;16.80;92.93;100913.03;5024164;28;20047;-66
2022/09/04 04:51:16;;;;;;;2.15;0.45;;;;;;;16.74;93.50;100910.28;5008445;28;20045;-65
2022/09/04 04:53:56;;;;;;;1.13;0.40;;;;;;;16.73;93.66;100917.38;5025008;28;20053;-67
2022/09/04 04:56:30;;;;;;;1.23;0.57;;;;;;;16.73;92.98;100925.25;5031292;28;20045;-67
2022/09/04 04:59:43;;;;;;;1.10;0.50;;;;;;;16.71;94.15;100929.88;5047628;28;20430;-67
2022/09/04 05:02:24;;;;;;;1.33;0.38;;;;;;;16.73;93.61;100929.69;5041712;28;20045;-66
2022/09/04 05:05:12;;;;;;;2.80;0.40;;;;;;;16.79;93.02;100939.53;5027695;28;20083;-67
2022/09/04 05:07:41;;;;;;;1.92;0.40;;;;;;;16.79;93.15;100942.16;5026229;28;20036;-66
2022/09/04 05:10:34;;;;;;;2.13;0.60;;;;;;;16.80;93.37;100947.25;5030276;28;20039;-66
2022/09/04 05:13:06;;;;;;;1.42;0.40;;;;;;;16.83;93.15;100949.53;5047467;28;20348;-66
2022/09/04 05:15:58;;;;;;;4.07;0.45;;;;;;;16.87;93.46;100947.38;5046175;28;20033;-66
2022/09/04 05:18:36;;;;;;;0.85;0.43;;;;;;;16.89;93.06;100950.66;5027646;28;20030;-65
2022/09/04 05:21:38;;;;;;;1.08;0.40;;;;;;;16.94;93.00;100952.78;5027744;28;20548;-66
2022/09/04 05:24:25;;;;;;;2.25;0.40;;;;;;;16.98;92.39;100954.88;5027602;28;20528;-66
2022/09/04 05:27:02;;;;;;;1.15;0.50;;;;;;;17.01;92.32;100959.00;5041530;28;20048;-65
2022/09/04 05:29:57;;;;;;;1.27;0.50;;;;;;;17.02;92.46;100963.22;5047283;28;20025;-66
2022/09/04 05:32:34;;;;;;;0.80;0.50;;;;;;;17.05;92.14;100952.34;5047748;28;20037;-66
2022/09/04 05:35:39;;;;;;;1.02;0.40;;;;;;;17.05;92.42;100950.53;5047757;28;20032;-66
2022/09/04 05:38:18;;;;;;;1.88;0.30;;;;;;;17.04;92.29;100954.16;5047312;28;20036;-67
2022/09/04 05:41:05;;;;;;;2.25;0.40;;;;;;;16.98;93.40;100960.16;5046575;28;20029;-66
2022/09/04 05:43:39;;;;;;;1.15;0.40;;;;;;;16.92;92.72;100963.47;5045788;28;20056;-66
2022/09/04 05:46:41;;;;;;;2.58;0.50;;;;;;;16.88;93.43;100960.38;5046561;28;20044;-67
2022/09/04 05:49:57;;;;;;;3.70;0.40;;;;;;;16.90;93.33;100958.38;5027607;28;20041;-66
2022/09/04 05:52:38;;;;;;;1.70;0.47;;;;;;;16.99;92.74;100966.25;4994449;28;20457;-66
2022/09/04 05:55:09;;;;;;;1.75;0.55;;;;;;;17.04;92.43;100963.88;5027251;28;20473;-67
2022/09/04 05:57:38;;;;;;;0.70;0.50;;;;;;;17.12;92.20;100969.91;5045627;28;20037;-66
2022/09/04 06:00:05;;;;;;;3.70;0.57;;;;;;;17.18;92.06;100969.22;5050740;28;20158;-66
2022/09/04 06:02:43;;;;;;;2.95;0.30;;;;;;;17.25;91.50;100967.53;5049108;28;20496;-65
2022/09/04 06:05:36;;;;;;;1.92;0.57;;;;;;;17.31;91.50;100970.44;5048211;28;20056;-65
2022/09/04 06:08:18;;;;;;;2.22;0.52;;;;;;;17.32;91.42;100965.00;5051100;28;20086;-67
2022/09/04 06:10:58;;;;;;;1.55;0.70;;;;;;;17.37;91.12;100972.38;5048789;28;20037;-66
2022/09/04 06:13:34;;;;;;;1.80;0.40;;;;;;;17.48;90.99;100972.78;5049748;28;20037;-65
2022/09/04 06:16:23;;;;;;;3.38;0.60;;;;;;;17.60;90.65;100978.44;5050366;28;20095;-69
2022/09/04 06:19:07;;;;;;;1.75;0.50;;;;;;;17.67;89.93;100975.94;5048334;28;20041;-67
2022/09/04 06:21:39;;;;;;;1.75;0.40;;;;;;;17.74;89.55;100975.06;5051087;28;20060;-66
2022/09/04 06:24:29;;;;;;;1.70;0.30;;;;;;;17.87;89.17;100974.44;5050498;28;20044;-66
2022/09/04 06:27:20;;;;;;;1.05;0.52;;;;;;;18.04;88.26;100969.81;5048918;28;20025;-67
2022/09/04 06:30:00;;;;;;;0.60;0.30;;;;;;;18.19;87.43;100975.91;5047033;28;20057;-66
2022/09/04 06:32:48;;;;;;;2.63;0.30;;;;;;;18.40;87.12;100983.94;5050099;28;20029;-65
2022/09/04 06:35:32;;;;;;;1.17;0.30;;;;;;;18.59;85.86;100987.81;5048688;28;20376;-66
2022/09/04 06:38:00;;;;;;;0.50;0.20;;;;;;;18.74;85.39;100983.34;5048320;28;20160;-65
2022/09/04 06:40:44;;;;;;;2.08;0.50;;;;;;;18.88;85.27;100971.94;5050243;28;20048;-66
2022/09/04 06:43:41;;;;;;;1.90;0.40;;;;;;;19.04;84.86;100970.88;5049021;28;20064;-66
2022/09/04 06:46:25;;;;;;;3.70;0.30;;;;;;;19.16;83.85;100966.75;5028328;28;20496;-66
2022/09/04 06:49:12;;;;;;;1.58;0.40;;;;;;;19.11;83.73;100968.31;5047303;28;20118;-66
2022/09/04 06:51:59;;;;;;;0.98;0.35;;;;;;;19.13;83.55;100975.03;5050077;28;20025;-65
2022/09/04 06:54:47;;;;;;;2.08;0.20;;;;;;;19.26;83.65;100987.56;5050032;28;20053;-66
2022/09/04 06:57:48;;;;;;;3.90;0.40;;;;;;;19.38;82.58;100983.38;5047467;28;20399;-66
2022/09/04 07:00:16;;;;;;;1.77;0.40;;;;;;;19.55;83.17;100968.94;5048159;28;20041;-66
2022/09/04 07:03:09;;;;;;;1.75;0.40;;;;;;;19.73;83.02;100980.88;5049782;28;20380;-64
2022/09/04 07:06:05;;;;;;;0.45;0.25;;;;;;;19.90;81.96;100976.94;5049484;28;20047;-66
2022/09/04 07:08:57;;;;;;;0.73;0.20;;;;;;;19.92;82.12;100979.38;5047690;28;20365;-64
2022/09/04 07:12:07;;;;;;;2.15;0.30;;;;;;;20.06;80.74;100981.94;5049403;28;20040;-65
2022/09/04 07:14:49;;;;;;;6.95;0.38;;;;;;;20.14;80.69;100984.41;5043751;28;20043;-66
2022/09/04 07:17:32;;;;;;;1.67;0.40;;;;;;;20.25;80.32;100980.41;5049338;28;20067;-66
2022/09/04 07:20:21;;;;;;;1.73;0.30;;;;;;;20.36;79.64;100990.44;5047173;28;20155;-66
2022/09/04 07:23:22;;;;;;;1.45;0.30;;;;;;;20.53;80.19;100988.31;5047763;28;20029;-66
2022/09/04 07:26:02;;;;;;;0.40;0.30;;;;;;;20.66;78.51;100987.56;5049783;28;20032;-66
2022/09/04 07:28:49;;;;;;;1.27;0.30;;;;;;;20.79;76.62;100992.91;5045077;28;20044;-66
2022/09/04 07:31:23;;;;;;;1.85;0.30;;;;;;;20.92;77.72;100997.41;5049107;28;20091;-68
2022/09/04 07:34:05;;;;;;;0.90;0.30;;;;;;;20.97;76.46;100982.56;5041624;28;20041;-66
2022/09/04 07:36:50;;;;;;;2.05;0.30;;;;;;;21.08;75.98;100975.84;5029179;28;20033;-68
2022/09/04 07:39:29;;;;;;;0.47;0.30;;;;;;;21.20;76.29;100975.06;5047479;28;20102;-66
2022/09/04 07:42:14;;;;;;;1.10;0.40;;;;;;;21.18;77.05;100979.75;5039521;28;20057;-67
2022/09/04 07:44:53;;;;;;;1.00;0.30;;;;;;;21.10;76.93;100981.78;5043769;28;20043;-67
2022/09/04 07:47:34;;;;;;;3.67;0.30;;;;;;;20.77;78.67;100977.22;5042216;28;20045;-66
2022/09/04 07:50:21;;;;;;;0.88;0.30;;;;;;;20.80;78.17;100986.56;5042094;28;20114;-67
2022/09/04 07:53:18;;;;;;;1.23;0.25;;;;;;;21.07;77.85;100980.34;5031721;28;20029;-66
2022/09/04 07:55:50;;;;;;;1.13;0.40;;;;;;;21.11;76.99;100986.06;5046080;28;20087;-66
2022/09/04 07:58:43;;;;;;;2.28;0.30;;;;;;;21.28;77.33;100975.91;5046790;28;20037;-65
2022/09/04 08:01:45;;;;;;;2.00;0.35;;;;;;;21.56;76.57;100978.38;5046232;28;20057;-66
2022/09/04 08:04:53;;;;;;;0.57;0.30;;;;;;;21.77;74.41;100978.16;5028491;28;20053;-65
2022/09/04 08:07:38;;;;;;;1.83;0.35;;;;;;;21.95;74.09;100981.00;5028142;28;20038;-65
2022/09/04 08:10:22;;;;;;;0.90;0.20;;;;;;;22.26;72.45;100982.97;5035333;28;20451;-65
2022/09/04 08:13:14;;;;;;;1.58;0.50;;;;;;;22.49;70.96;100990.47;5044878;28;20037;-64
2022/09/04 08:15:55;;;;;;;0.60;0.30;;;;;;;22.66;71.45;100998.81;5041255;28;20457;-68
2022/09/04 08:18:40;;;;;;;2.05;0.30;;;;;;;22.88;70.38;101000.13;5037453;28;20060;-67
2022/09/04 08:21:28;;;;;;;0.70;0.25;;;;;;;22.90;70.08;101003.41;5037415;28;20103;-66
2022/09/04 08:24:28;;;;;;;0.90;0.20;;;;;;;23.12;70.28;101006.56;5038347;28;20033;-67
2022/09/04 08:27:08;;;;;;;0.88;0.22;;;;;;;23.37;70.41;101012.72;5044854;28;20064;-66
2022/09/04 08:29:58;;;;;;;1.90;0.20;;;;;;;23.58;69.01;101014.25;5035136;28;20033;-65
2022/09/04 08:32:45;;;;;;;0.50;0.20;;;;;;;23.56;69.65;101018.16;5046788;28;20041;-64
2022/09/04 08:35:19;;;;;;;3.05;0.20;;;;;;;23.77;69.72;101020.41;5042547;28;20085;-67
2022/09/04 08:37:51;;;;;;;4.38;0.32;;;;;;;23.68;66.76;101022.53;5033136;28;20426;-67
2022/09/04 08:40:24;;;;;;;0.47;0.20;;;;;;;23.95;68.88;101024.97;5042419;28;20370;-65
2022/09/04 08:43:23;;;;;;;2.53;0.25;;;;;;;24.06;68.12;101034.91;5041275;28;20036;-65
2022/09/04 08:46:17;;;;;;;0.68;0.20;;;;;;;24.12;69.00;101031.34;5040327;28;20040;-65
2022/09/04 08:49:08;;;;;;;0.98;0.20;;;;;;;24.06;69.28;101030.41;5046020;28;20514;-67
2022/09/04 08:51:45;;;;;;;2.05;0.20;;;;;;;23.86;68.71;101035.06;5045971;28;20524;-68
2022/09/04 08:54:17;;;;;;;2.28;0.20;;;;;;;23.64;69.78;101039.13;5043207;28;20119;-67
2022/09/04 08:57:03;;;;;;;0.90;0.20;;;;;;;23.62;70.76;101041.22;5042092;28;20029;-68
2022/09/04 08:59:38;;;;;;;0.60;0.30;;;;;;;23.48;70.99;101040.47;5042827;28;20511;-67
2022/09/04 09:02:28;;;;;;;1.65;0.30;;;;;;;23.28;70.79;101037.94;5036678;28;20116;-67
2022/09/04 09:05:07;;;;;;;1.50;0.20;;;;;;;23.13;70.61;101037.44;5046267;28;20037;-68
2022/09/04 09:08:09;;;;;;;3.10;0.20;;;;;;;23.14;71.26;101042.53;5029320;28;20055;-70
2022/09/04 09:10:50;;;;;;;0.50;0.20;;;;;;;23.15;70.08;101040.69;5047483;28;20364;-68
2022/09/04 09:13:46;;;;;;;0.68;0.20;;;;;;;23.17;68.71;101035.94;5046802;28;20048;-67
2022/09/04 09:16:21;;;;;;;1.05;0.20;;;;;;;23.11;68.40;101039.47;5047465;28;20025;-67
2022/09/04 09:19:07;;;;;;;1.77;0.30;;;;;;;23.04;69.29;101041.34;5045516;28;20037;-67
2022/09/04 09:21:43;;;;;;;2.47;0.30;;;;;;;23.13;69.14;101042.75;5047005;28;20044;-66
2022/09/04 09:24:33;;;;;;;0.88;0.20;;;;;;;23.32;67.27;101036.47;5047444;28;20033;-69
2022/09/04 09:27:23;;;;;;;0.60;0.30;;;;;;;23.41;67.39;101037.84;5046259;28;20051;-68
2022/09/04 09:29:48;;;;;;;0.60;0.20;;;;;;;23.45;67.47;101033.72;5036610;28;20162;-68
2022/09/04 09:32:14;;;;;;;2.90;0.30;;;;;;;23.57;68.62;101031.22;5048730;28;20488;-69
2022/09/04 09:35:08;;;;;;;0.70;0.20;;;;;;;23.60;68.20;101033.47;5049054;28;20111;-68
2022/09/04 09:38:16;;;;;;;0.80;0.20;;;;;;;23.70;66.65;101032.94;5049525;28;20035;-67
2022/09/04 09:41:04;;;;;;;0.70;0.20;;;;;;;23.70;66.30;101035.59;5051024;28;20025;-67
2022/09/04 09:43:53;;;;;;;0.50;0.38;;;;;;;23.59;67.29;101034.50;5049715;28;20052;-69
2022/09/04 09:46:38;;;;;;;0.55;0.20;;;;;;;23.50;66.92;101019.78;5051044;28;20182;-68
2022/09/04 09:49:26;;;;;;;0.60;0.20;;;;;;;23.53;65.96;101024.72;5050871;28;20183;-67
2022/09/04 09:52:27;;;;;;;1.02;0.20;;;;;;;23.63;66.59;101026.91;5050949;28;20389;-67
2022/09/04 09:55:30;;;;;;;1.77;0.38;;;;;;;23.50;68.56;101017.13;5048988;28;20064;-65
2022/09/04 09:58:34;;;;;;;3.05;0.30;;;;;;;23.43;66.87;101017.19;5050200;28;20036;-67
2022/09/04 10:01:05;;;;;;;0.60;0.20;;;;;;;23.70;64.96;101025.78;5046486;28;20152;-68
2022/09/04 10:03:58;;;;;;;1.08;0.20;;;;;;;23.72;64.98;101023.72;5048895;28;20029;-66
2022/09/04 10:06:33;;;;;;;3.50;0.20;;;;;;;23.55;66.14;101020.00;5049253;28;20066;-68
2022/09/04 10:09:23;;;;;;;1.00;0.20;;;;;;;23.53;66.61;101015.88;5050504;28;20032;-68
2022/09/04 10:11:58;;;;;;;0.93;0.30;;;;;;;23.52;66.78;101023.06;5050661;28;20036;-68
2022/09/04 10:14:55;;;;;;;0.40;0.20;;;;;;;23.58;65.93;101021.41;5049648;28;20674;-68
2022/09/04 10:17:33;;;;;;;0.80;0.20;;;;;;;23.43;66.55;101019.84;5050350;28;20083;-67
2022/09/04 10:20:33;;;;;;;0.25;0.20;;;;;;;23.81;62.51;101016.28;5050244;28;20045;-69
2022/09/04 10:23:25;;;;;;;0.85;0.20;;;;;;;23.97;62.65;101010.41;5048252;28;20048;-69
2022/09/04 10:25:59;;;;;;;0.40;0.20;;;;;;;23.79;64.32;101002.38;5044200;28;20036;-68
2022/09/04 10:28:27;;;;;;;0.83;0.20;;;;;;;23.91;63.10;101003.31;5049285;28;20041;-68
2022/09/04 10:31:02;;;;;;;0.77;0.20;;;;;;;23.87;64.17;101006.63;5050479;28;20037;-69
2022/09/04 10:33:42;;;;;;;1.17;0.20;;;;;;;23.81;65.40;101006.47;5049525;28;20029;-68
2022/09/04 10:36:45;;;;;;;0.40;0.20;;;;;;;23.78;64.52;101003.41;5049359;28;20283;-68
2022/09/04 10:42:29;;;;;;;0.63;0.20;;;;;;;23.95;61.61;100995.69;5049878;28;20136;-68
2022/09/04 10:44:57;;;;;;;1.58;0.30;;;;;;;24.26;60.95;101000.09;5047768;28;20055;-68
2022/09/04 10:47:50;;;;;;;0.70;0.20;;;;;;;24.25;59.60;100993.97;5049964;28;20040;-69
2022/09/04 10:50:34;;;;;;;2.58;0.20;;;;;;;24.16;59.85;100987.28;5048476;28;20104;-68
2022/09/04 10:53:05;;;;;;;0.43;0.20;;;;;;;24.14;60.20;100990.16;5049644;28;20119;-68
2022/09/04 10:55:53;;;;;;;0.52;0.20;;;;;;;24.00;60.65;100993.19;5048787;28;20037;-67
2022/09/04 10:58:30;;;;;;;0.40;0.20;;;;;;;24.12;60.47;100997.53;5047230;28;20079;-67
2022/09/04 11:01:17;;;;;;;1.35;0.28;;;;;;;24.11;59.58;100990.59;5048001;28;20416;-69
2022/09/04 11:04:16;;;;;;;1.48;0.32;;;;;;;23.95;60.07;100993.03;5049643;28;20084;-69
2022/09/04 11:06:51;;;;;;;1.13;0.15;;;;;;;24.04;61.68;100989.88;5049531;28;20025;-67
2022/09/04 11:09:35;;;;;;;1.10;0.20;;;;;;;23.98;61.43;100988.09;5048962;28;20065;-67
2022/09/04 11:12:12;;;;;;;1.67;0.20;;;;;;;23.88;60.96;100987.78;5047523;28;20484;-67
2022/09/04 11:15:00;;;;;;;0.80;0.20;;;;;;;24.01;60.70;100984.19;5048759;28;20037;-67
2022/09/04 11:17:55;;;;;;;0.30;0.10;;;;;;;24.12;58.12;100976.25;5049324;28;20407;-68
2022/09/04 11:20:26;;;;;;;0.68;0.20;;;;;;;24.52;55.97;100975.84;5049159;28;20029;-69
2022/09/04 11:23:30;;;;;;;0.20;0.10;;;;;;;24.58;55.59;100974.91;5047384;28;20466;-68
2022/09/04 11:26:59;;;;;;;0.40;0.20;;;;;;;24.62;55.90;100970.78;5048902;28;20514;-69
2022/09/04 11:29:46;;;;;;;1.13;0.10;;;;;;;24.77;55.89;100971.19;5018222;28;20033;-68
2022/09/04 11:32:24;;;;;;;1.63;0.20;;;;;;;24.84;57.07;100973.78;5026705;28;20049;-70
2022/09/04 11:35:01;;;;;;;2.78;0.20;;;;;;;24.71;55.71;100963.28;5048982;28;20116;-70
2022/09/04 11:37:57;;;;;;;0.20;0.10;;;;;;;24.90;55.61;100967.53;5048014;28;20107;-68
2022/09/04 11:41:00;;;;;;;0.95;0.20;;;;;;;24.95;54.98;100970.34;5049081;28;20044;-69
2022/09/04 11:43:49;;;;;;;0.50;0.20;;;;;;;24.99;54.98;100970.75;5048385;28;20057;-69
2022/09/04 11:46:49;;;;;;;1.10;0.20;;;;;;;24.95;55.17;100964.19;5045861;28;20048;-67
2022/09/04 11:49:30;;;;;;;0.73;0.10;;;;;;;24.93;56.40;100951.09;5037480;28;20029;-68
2022/09/04 11:52:25;;;;;;;0.68;0.10;;;;;;;25.04;57.11;100947.69;5046952;28;20155;-68
2022/09/04 11:55:18;;;;;;;4.85;0.20;;;;;;;24.99;55.98;100944.91;5046570;28;20114;-68
2022/09/04 11:58:22;;;;;;;2.53;0.30;;;;;;;24.89;58.28;100954.44;5046019;28;21390;-68
2022/09/04 12:01:08;;;;;;;0.30;0.20;;;;;;;24.70;58.94;100946.50;5033766;28;20045;-69
2022/09/04 12:03:52;;;;;;;1.83;0.17;;;;;;;24.67;58.56;100952.28;5041023;28;20045;-68
2022/09/04 12:06:27;;;;;;;0.63;0.20;;;;;;;24.71;59.06;100945.44;5027324;28;20037;-68
2022/09/04 12:09:05;;;;;;;1.35;0.20;;;;;;;24.65;59.72;100941.03;5042126;28;20395;-68
2022/09/04 12:11:45;;;;;;;0.65;0.15;;;;;;;24.70;58.17;100946.50;5047251;28;20049;-68
2022/09/04 12:14:35;;;;;;;0.47;0.10;;;;;;;24.84;55.15;100946.31;5048605;28;20033;-68
2022/09/04 12:17:28;;;;;;;0.63;0.20;;;;;;;25.05;54.35;100941.28;5045437;28;20457;-68
2022/09/04 12:20:32;;;;;;;1.50;0.20;;;;;;;25.02;54.33;100931.13;5047053;28;20040;-69
2022/09/04 12:23:21;;;;;;;0.40;0.20;;;;;;;24.97;55.30;100940.84;5048515;28;20341;-68
2022/09/04 12:26:05;;;;;;;0.80;0.20;;;;;;;24.86;54.82;100936.25;5047302;28;20492;-69
2022/09/04 12:28:48;;;;;;;0.40;0.20;;;;;;;24.78;55.43;100935.53;5047754;28;20033;-68
2022/09/04 12:31:38;;;;;;;1.50;0.20;;;;;;;24.86;53.58;100926.41;5047678;28;20037;-69
2022/09/04 12:34:31;;;;;;;1.00;0.20;;;;;;;25.11;52.34;100926.25;5046648;28;20037;-68
2022/09/04 12:37:10;;;;;;;0.40;0.20;;;;;;;25.46;52.83;100921.78;5042766;28;20648;-68
2022/09/04 12:39:57;;;;;;;1.52;0.35;;;;;;;25.56;51.05;100915.03;5047485;28;20041;-69
2022/09/04 12:42:25;;;;;;;0.65;0.20;;;;;;;25.60;52.49;100913.53;5027847;28;20075;-68
2022/09/04 12:45:00;;;;;;;0.20;0.10;;;;;;;25.52;51.65;100911.22;5027691;28;20049;-68
2022/09/04 12:48:09;;;;;;;0.30;0.10;;;;;;;25.46;51.47;100910.28;5040600;28;20055;-71
2022/09/04 12:50:59;;;;;;;2.78;0.20;;;;;;;25.28;54.70;100900.53;5048105;28;20349;-68
2022/09/04 12:54:10;;;;;;;1.58;0.17;;;;;;;25.19;56.59;100901.91;5043743;28;20071;-69